sensor_id;sensor_type;location;lat;lon;timestamp;P1;durP1;ratioP1;P2;durP2;ratioP2
65130;SDS011;51709;54.912;8.316;2023-03-01T00:01:12;8.60;;;3.67;;
65130;SDS011;51709;54.912;8.316;2023-03-01T00:06:47;13.18;;;5.30;;
65130;SDS011;51709;54.912;8.316;2023-03-01T00:12:07;13.10;;;4.47;;
65130;SDS011;51709;54.912;8.316;2023-03-01T00:17:28;16.88;;;4.68;;
65130;SDS011;51709;54.912;8.316;2023-03-01T00:22:49;14.00;;;4.88;;
65130;SDS011;51709;54.912;8.316;2023-03-01T00:28:09;11.65;;;3.85;;
65130;SDS011;51709;54.912;8.316;2023-03-01T00:33:30;12.90;;;5.00;;
65130;SDS011;51709;54.912;8.316;2023-03-01T00:38:51;20.48;;;8.52;;
65130;SDS011;51709;54.912;8.316;2023-03-01T00:44:12;12.82;;;5.20;;
65130;SDS011;51709;54.912;8.316;2023-03-01T00:49:33;14.48;;;4.93;;
65130;SDS011;51709;54.912;8.316;2023-03-01T00:54:54;18.00;;;5.45;;
65130;SDS011;51709;54.912;8.316;2023-03-01T01:00:14;8.82;;;4.80;;
65130;SDS011;51709;54.912;8.316;2023-03-01T01:05:35;15.98;;;5.57;;
65130;SDS011;51709;54.912;8.316;2023-03-01T01:10:56;11.20;;;5.88;;
65130;SDS011;51709;54.912;8.316;2023-03-01T01:16:17;12.35;;;5.60;;
65130;SDS011;51709;54.912;8.316;2023-03-01T01:21:39;13.25;;;6.85;;
65130;SDS011;51709;54.912;8.316;2023-03-01T01:27:03;17.40;;;6.43;;
65130;SDS011;51709;54.912;8.316;2023-03-01T01:32:24;11.75;;;5.88;;
65130;SDS011;51709;54.912;8.316;2023-03-01T01:37:47;13.38;;;6.35;;
65130;SDS011;51709;54.912;8.316;2023-03-01T01:43:11;12.35;;;6.43;;
65130;SDS011;51709;54.912;8.316;2023-03-01T01:48:42;14.27;;;6.47;;
65130;SDS011;51709;54.912;8.316;2023-03-01T01:54:10;14.25;;;6.43;;
65130;SDS011;51709;54.912;8.316;2023-03-01T01:59:34;11.27;;;4.57;;
65130;SDS011;51709;54.912;8.316;2023-03-01T02:05:04;11.45;;;3.60;;
65130;SDS011;51709;54.912;8.316;2023-03-01T02:10:32;6.20;;;3.58;;
65130;SDS011;51709;54.912;8.316;2023-03-01T02:15:55;13.70;;;2.97;;
65130;SDS011;51709;54.912;8.316;2023-03-01T02:27:04;3.40;;;2.03;;
65130;SDS011;51709;54.912;8.316;2023-03-01T02:32:24;12.82;;;2.80;;
65130;SDS011;51709;54.912;8.316;2023-03-01T02:37:45;5.40;;;3.00;;
65130;SDS011;51709;54.912;8.316;2023-03-01T02:43:08;8.95;;;3.13;;
65130;SDS011;51709;54.912;8.316;2023-03-01T02:48:42;12.82;;;3.25;;
65130;SDS011;51709;54.912;8.316;2023-03-01T02:54:12;9.73;;;3.25;;
65130;SDS011;51709;54.912;8.316;2023-03-01T02:59:41;25.08;;;4.28;;
65130;SDS011;51709;54.912;8.316;2023-03-01T03:05:04;7.85;;;2.92;;
65130;SDS011;51709;54.912;8.316;2023-03-01T03:10:28;15.45;;;2.65;;
65130;SDS011;51709;54.912;8.316;2023-03-01T03:15:51;10.73;;;3.33;;
65130;SDS011;51709;54.912;8.316;2023-03-01T03:21:12;4.93;;;2.47;;
65130;SDS011;51709;54.912;8.316;2023-03-01T03:26:33;10.30;;;3.17;;
65130;SDS011;51709;54.912;8.316;2023-03-01T03:31:54;12.48;;;3.35;;
65130;SDS011;51709;54.912;8.316;2023-03-01T03:37:15;12.40;;;2.97;;
65130;SDS011;51709;54.912;8.316;2023-03-01T03:42:54;9.45;;;2.50;;
65130;SDS011;51709;54.912;8.316;2023-03-01T03:48:15;6.13;;;2.92;;
65130;SDS011;51709;54.912;8.316;2023-03-01T03:53:36;4.60;;;2.63;;
65130;SDS011;51709;54.912;8.316;2023-03-01T03:58:57;5.32;;;3.22;;
65130;SDS011;51709;54.912;8.316;2023-03-01T04:04:18;9.50;;;3.28;;
65130;SDS011;51709;54.912;8.316;2023-03-01T04:09:39;7.05;;;2.83;;
65130;SDS011;51709;54.912;8.316;2023-03-01T04:15:00;7.78;;;2.40;;
65130;SDS011;51709;54.912;8.316;2023-03-01T04:20:23;9.57;;;2.05;;
65130;SDS011;51709;54.912;8.316;2023-03-01T04:25:50;7.47;;;2.10;;
65130;SDS011;51709;54.912;8.316;2023-03-01T04:31:17;10.93;;;3.13;;
65130;SDS011;51709;54.912;8.316;2023-03-01T04:36:41;17.77;;;3.38;;
65130;SDS011;51709;54.912;8.316;2023-03-01T04:42:01;6.32;;;2.55;;
65130;SDS011;51709;54.912;8.316;2023-03-01T04:47:22;7.47;;;3.20;;
65130;SDS011;51709;54.912;8.316;2023-03-01T04:52:43;8.93;;;3.58;;
65130;SDS011;51709;54.912;8.316;2023-03-01T04:58:04;6.20;;;2.85;;
65130;SDS011;51709;54.912;8.316;2023-03-01T05:03:25;9.82;;;4.57;;
65130;SDS011;51709;54.912;8.316;2023-03-01T05:08:46;9.18;;;4.20;;
65130;SDS011;51709;54.912;8.316;2023-03-01T05:14:07;10.43;;;4.13;;
65130;SDS011;51709;54.912;8.316;2023-03-01T05:19:28;9.63;;;4.30;;
65130;SDS011;51709;54.912;8.316;2023-03-01T05:24:51;9.48;;;3.83;;
65130;SDS011;51709;54.912;8.316;2023-03-01T05:30:13;7.78;;;4.00;;
65130;SDS011;51709;54.912;8.316;2023-03-01T05:35:34;5.40;;;3.10;;
65130;SDS011;51709;54.912;8.316;2023-03-01T05:40:54;6.53;;;4.18;;
65130;SDS011;51709;54.912;8.316;2023-03-01T05:46:15;7.82;;;4.18;;
65130;SDS011;51709;54.912;8.316;2023-03-01T05:51:36;6.90;;;3.67;;
65130;SDS011;51709;54.912;8.316;2023-03-01T05:56:57;9.45;;;3.50;;
65130;SDS011;51709;54.912;8.316;2023-03-01T06:02:17;12.23;;;3.85;;
65130;SDS011;51709;54.912;8.316;2023-03-01T06:07:38;8.18;;;3.38;;
65130;SDS011;51709;54.912;8.316;2023-03-01T06:13:00;7.65;;;3.97;;
65130;SDS011;51709;54.912;8.316;2023-03-01T06:18:21;10.27;;;4.07;;
65130;SDS011;51709;54.912;8.316;2023-03-01T06:23:41;6.50;;;3.72;;
65130;SDS011;51709;54.912;8.316;2023-03-01T06:29:05;5.95;;;3.38;;
65130;SDS011;51709;54.912;8.316;2023-03-01T06:34:25;8.32;;;3.92;;
65130;SDS011;51709;54.912;8.316;2023-03-01T06:39:46;8.90;;;4.05;;
65130;SDS011;51709;54.912;8.316;2023-03-01T06:45:07;8.27;;;4.50;;
65130;SDS011;51709;54.912;8.316;2023-03-01T06:50:28;9.45;;;4.43;;
65130;SDS011;51709;54.912;8.316;2023-03-01T06:55:58;11.23;;;5.97;;
65130;SDS011;51709;54.912;8.316;2023-03-01T07:01:20;9.55;;;5.20;;
65130;SDS011;51709;54.912;8.316;2023-03-01T07:06:40;10.38;;;5.65;;
65130;SDS011;51709;54.912;8.316;2023-03-01T07:12:01;8.98;;;4.78;;
65130;SDS011;51709;54.912;8.316;2023-03-01T07:17:22;7.93;;;4.47;;
65130;SDS011;51709;54.912;8.316;2023-03-01T07:22:43;14.63;;;4.00;;
65130;SDS011;51709;54.912;8.316;2023-03-01T07:28:03;11.43;;;5.40;;
65130;SDS011;51709;54.912;8.316;2023-03-01T07:33:24;10.20;;;5.13;;
65130;SDS011;51709;54.912;8.316;2023-03-01T07:38:45;5.38;;;3.70;;
65130;SDS011;51709;54.912;8.316;2023-03-01T07:44:06;4.80;;;3.80;;
65130;SDS011;51709;54.912;8.316;2023-03-01T07:49:26;5.18;;;3.28;;
65130;SDS011;51709;54.912;8.316;2023-03-01T07:54:47;4.15;;;3.30;;
65130;SDS011;51709;54.912;8.316;2023-03-01T08:00:09;4.70;;;3.35;;
65130;SDS011;51709;54.912;8.316;2023-03-01T08:05:32;8.07;;;1.65;;
65130;SDS011;51709;54.912;8.316;2023-03-01T08:10:55;1.75;;;1.55;;
65130;SDS011;51709;54.912;8.316;2023-03-01T08:16:17;0.95;;;0.90;;
65130;SDS011;51709;54.912;8.316;2023-03-01T08:21:41;1.60;;;1.10;;
65130;SDS011;51709;54.912;8.316;2023-03-01T08:27:02;2.78;;;0.75;;
65130;SDS011;51709;54.912;8.316;2023-03-01T08:32:23;2.17;;;1.80;;
65130;SDS011;51709;54.912;8.316;2023-03-01T08:37:44;10.15;;;2.83;;
65130;SDS011;51709;54.912;8.316;2023-03-01T08:43:05;2.13;;;1.75;;
65130;SDS011;51709;54.912;8.316;2023-03-01T08:48:27;3.65;;;1.50;;
65130;SDS011;51709;54.912;8.316;2023-03-01T08:53:48;6.88;;;1.27;;
65130;SDS011;51709;54.912;8.316;2023-03-01T08:59:09;2.08;;;1.30;;
65130;SDS011;51709;54.912;8.316;2023-03-01T09:04:31;2.95;;;1.70;;
65130;SDS011;51709;54.912;8.316;2023-03-01T09:09:52;0.93;;;0.60;;
65130;SDS011;51709;54.912;8.316;2023-03-01T09:15:14;1.05;;;0.63;;
65130;SDS011;51709;54.912;8.316;2023-03-01T09:20:34;3.17;;;0.88;;
65130;SDS011;51709;54.912;8.316;2023-03-01T09:25:55;3.97;;;0.95;;
65130;SDS011;51709;54.912;8.316;2023-03-01T09:31:16;3.95;;;0.95;;
65130;SDS011;51709;54.912;8.316;2023-03-01T09:36:38;4.93;;;0.88;;
65130;SDS011;51709;54.912;8.316;2023-03-01T09:42:02;3.03;;;0.70;;
65130;SDS011;51709;54.912;8.316;2023-03-01T09:47:26;3.80;;;0.93;;
65130;SDS011;51709;54.912;8.316;2023-03-01T09:53:00;0.63;;;0.50;;
65130;SDS011;51709;54.912;8.316;2023-03-01T10:03:44;3.92;;;1.08;;
65130;SDS011;51709;54.912;8.316;2023-03-01T10:09:21;0.52;;;0.52;;
65130;SDS011;51709;54.912;8.316;2023-03-01T10:20:22;0.30;;;0.30;;
65130;SDS011;51709;54.912;8.316;2023-03-01T10:31:19;2.05;;;0.75;;
65130;SDS011;51709;54.912;8.316;2023-03-01T10:36:50;1.20;;;0.85;;
65130;SDS011;51709;54.912;8.316;2023-03-01T10:42:19;3.60;;;0.90;;
65130;SDS011;51709;54.912;8.316;2023-03-01T10:47:46;1.02;;;0.60;;
65130;SDS011;51709;54.912;8.316;2023-03-01T10:53:29;3.55;;;0.60;;
65130;SDS011;51709;54.912;8.316;2023-03-01T10:59:01;2.10;;;0.88;;
65130;SDS011;51709;54.912;8.316;2023-03-01T11:04:26;2.45;;;0.85;;
65130;SDS011;51709;54.912;8.316;2023-03-01T11:09:46;1.75;;;0.60;;
65130;SDS011;51709;54.912;8.316;2023-03-01T11:15:08;3.38;;;0.85;;
65130;SDS011;51709;54.912;8.316;2023-03-01T11:20:42;1.33;;;0.88;;
65130;SDS011;51709;54.912;8.316;2023-03-01T11:26:05;1.08;;;0.70;;
65130;SDS011;51709;54.912;8.316;2023-03-01T11:31:33;1.92;;;0.77;;
65130;SDS011;51709;54.912;8.316;2023-03-01T11:36:56;6.97;;;0.80;;
65130;SDS011;51709;54.912;8.316;2023-03-01T11:42:35;5.90;;;1.40;;
65130;SDS011;51709;54.912;8.316;2023-03-01T11:48:12;2.35;;;0.77;;
65130;SDS011;51709;54.912;8.316;2023-03-01T11:54:18;3.53;;;0.95;;
65130;SDS011;51709;54.912;8.316;2023-03-01T12:11:46;2.47;;;0.50;;
65130;SDS011;51709;54.912;8.316;2023-03-01T12:17:28;4.07;;;0.98;;
65130;SDS011;51709;54.912;8.316;2023-03-01T12:45:40;6.75;;;1.00;;
65130;SDS011;51709;54.912;8.316;2023-03-01T12:51:10;3.75;;;0.68;;
65130;SDS011;51709;54.912;8.316;2023-03-01T12:56:34;2.47;;;0.85;;
65130;SDS011;51709;54.912;8.316;2023-03-01T13:02:03;0.50;;;0.40;;
65130;SDS011;51709;54.912;8.316;2023-03-01T13:07:36;11.32;;;1.50;;
65130;SDS011;51709;54.912;8.316;2023-03-01T13:18:28;3.55;;;1.08;;
65130;SDS011;51709;54.912;8.316;2023-03-01T13:23:51;5.32;;;0.80;;
65130;SDS011;51709;54.912;8.316;2023-03-01T13:29:25;0.57;;;0.50;;
65130;SDS011;51709;54.912;8.316;2023-03-01T13:34:50;1.63;;;0.70;;
65130;SDS011;51709;54.912;8.316;2023-03-01T13:45:39;4.50;;;0.82;;
65130;SDS011;51709;54.912;8.316;2023-03-01T13:51:02;3.75;;;1.10;;
65130;SDS011;51709;54.912;8.316;2023-03-01T13:56:25;0.63;;;0.60;;
65130;SDS011;51709;54.912;8.316;2023-03-01T14:01:57;8.00;;;1.40;;
65130;SDS011;51709;54.912;8.316;2023-03-01T14:07:20;3.10;;;0.95;;
65130;SDS011;51709;54.912;8.316;2023-03-01T14:12:50;4.03;;;0.68;;
65130;SDS011;51709;54.912;8.316;2023-03-01T14:18:44;4.22;;;0.98;;
65130;SDS011;51709;54.912;8.316;2023-03-01T14:24:18;4.28;;;0.88;;
65130;SDS011;51709;54.912;8.316;2023-03-01T14:29:41;3.58;;;1.30;;
65130;SDS011;51709;54.912;8.316;2023-03-01T14:35:03;0.98;;;0.68;;
65130;SDS011;51709;54.912;8.316;2023-03-01T14:40:39;2.95;;;1.27;;
65130;SDS011;51709;54.912;8.316;2023-03-01T14:46:00;3.00;;;1.42;;
65130;SDS011;51709;54.912;8.316;2023-03-01T14:51:21;7.18;;;1.20;;
65130;SDS011;51709;54.912;8.316;2023-03-01T14:56:45;3.80;;;0.80;;
65130;SDS011;51709;54.912;8.316;2023-03-01T15:02:12;4.15;;;1.33;;
65130;SDS011;51709;54.912;8.316;2023-03-01T15:07:38;3.97;;;1.15;;
65130;SDS011;51709;54.912;8.316;2023-03-01T15:13:19;6.60;;;1.53;;
65130;SDS011;51709;54.912;8.316;2023-03-01T15:18:46;5.93;;;1.65;;
65130;SDS011;51709;54.912;8.316;2023-03-01T15:29:32;1.63;;;1.30;;
65130;SDS011;51709;54.912;8.316;2023-03-01T15:35:01;5.50;;;1.55;;
65130;SDS011;51709;54.912;8.316;2023-03-01T15:41:02;2.22;;;1.40;;
65130;SDS011;51709;54.912;8.316;2023-03-01T15:46:28;5.25;;;1.73;;
65130;SDS011;51709;54.912;8.316;2023-03-01T15:51:53;8.43;;;1.92;;
65130;SDS011;51709;54.912;8.316;2023-03-01T15:57:15;7.25;;;1.73;;
65130;SDS011;51709;54.912;8.316;2023-03-01T16:02:36;7.22;;;1.83;;
65130;SDS011;51709;54.912;8.316;2023-03-01T16:07:57;4.63;;;2.00;;
65130;SDS011;51709;54.912;8.316;2023-03-01T16:13:17;4.95;;;2.45;;
65130;SDS011;51709;54.912;8.316;2023-03-01T16:18:39;5.20;;;2.00;;
65130;SDS011;51709;54.912;8.316;2023-03-01T16:24:00;4.25;;;2.30;;
65130;SDS011;51709;54.912;8.316;2023-03-01T16:29:20;6.55;;;2.90;;
65130;SDS011;51709;54.912;8.316;2023-03-01T16:34:40;8.65;;;2.95;;
65130;SDS011;51709;54.912;8.316;2023-03-01T16:40:02;5.65;;;2.53;;
65130;SDS011;51709;54.912;8.316;2023-03-01T16:45:24;7.68;;;2.42;;
65130;SDS011;51709;54.912;8.316;2023-03-01T16:50:54;7.55;;;2.70;;
65130;SDS011;51709;54.912;8.316;2023-03-01T16:56:19;4.70;;;3.00;;
65130;SDS011;51709;54.912;8.316;2023-03-01T17:01:43;10.18;;;2.60;;
65130;SDS011;51709;54.912;8.316;2023-03-01T17:07:04;3.60;;;2.58;;
65130;SDS011;51709;54.912;8.316;2023-03-01T17:12:25;6.38;;;3.88;;
65130;SDS011;51709;54.912;8.316;2023-03-01T17:17:45;9.95;;;4.43;;
65130;SDS011;51709;54.912;8.316;2023-03-01T17:23:11;5.53;;;3.70;;
65130;SDS011;51709;54.912;8.316;2023-03-01T17:28:32;8.43;;;5.32;;
65130;SDS011;51709;54.912;8.316;2023-03-01T17:33:54;7.03;;;4.50;;
65130;SDS011;51709;54.912;8.316;2023-03-01T17:39:18;12.60;;;5.50;;
65130;SDS011;51709;54.912;8.316;2023-03-01T17:44:49;10.75;;;4.45;;
65130;SDS011;51709;54.912;8.316;2023-03-01T17:50:09;7.65;;;4.78;;
65130;SDS011;51709;54.912;8.316;2023-03-01T17:55:31;9.18;;;5.45;;
65130;SDS011;51709;54.912;8.316;2023-03-01T18:00:52;11.43;;;6.25;;
65130;SDS011;51709;54.912;8.316;2023-03-01T18:06:14;11.98;;;7.53;;
65130;SDS011;51709;54.912;8.316;2023-03-01T18:11:36;10.50;;;5.47;;
65130;SDS011;51709;54.912;8.316;2023-03-01T18:16:57;13.70;;;7.72;;
65130;SDS011;51709;54.912;8.316;2023-03-01T18:22:18;17.13;;;8.07;;
65130;SDS011;51709;54.912;8.316;2023-03-01T18:27:39;15.23;;;7.40;;
65130;SDS011;51709;54.912;8.316;2023-03-01T18:33:00;11.63;;;7.20;;
65130;SDS011;51709;54.912;8.316;2023-03-01T18:38:20;8.88;;;6.88;;
65130;SDS011;51709;54.912;8.316;2023-03-01T18:43:41;13.82;;;6.93;;
65130;SDS011;51709;54.912;8.316;2023-03-01T18:49:02;10.00;;;5.80;;
65130;SDS011;51709;54.912;8.316;2023-03-01T18:54:22;9.55;;;6.30;;
65130;SDS011;51709;54.912;8.316;2023-03-01T18:59:42;10.43;;;6.63;;
65130;SDS011;51709;54.912;8.316;2023-03-01T19:05:03;12.43;;;6.85;;
65130;SDS011;51709;54.912;8.316;2023-03-01T19:10:24;12.45;;;6.45;;
65130;SDS011;51709;54.912;8.316;2023-03-01T19:15:44;12.30;;;7.55;;
65130;SDS011;51709;54.912;8.316;2023-03-01T19:21:06;15.25;;;9.23;;
65130;SDS011;51709;54.912;8.316;2023-03-01T19:26:27;15.55;;;9.45;;
65130;SDS011;51709;54.912;8.316;2023-03-01T19:31:49;14.10;;;8.15;;
65130;SDS011;51709;54.912;8.316;2023-03-01T19:37:10;17.63;;;9.73;;
65130;SDS011;51709;54.912;8.316;2023-03-01T19:42:32;22.42;;;13.20;;
65130;SDS011;51709;54.912;8.316;2023-03-01T19:47:52;18.45;;;10.82;;
65130;SDS011;51709;54.912;8.316;2023-03-01T19:53:13;37.80;;;21.10;;
65130;SDS011;51709;54.912;8.316;2023-03-01T19:58:35;35.25;;;18.88;;
65130;SDS011;51709;54.912;8.316;2023-03-01T20:03:57;24.25;;;14.40;;
65130;SDS011;51709;54.912;8.316;2023-03-01T20:09:18;18.88;;;11.80;;
65130;SDS011;51709;54.912;8.316;2023-03-01T20:14:41;19.02;;;10.98;;
65130;SDS011;51709;54.912;8.316;2023-03-01T20:20:02;26.48;;;14.57;;
65130;SDS011;51709;54.912;8.316;2023-03-01T20:25:23;44.20;;;20.83;;
65130;SDS011;51709;54.912;8.316;2023-03-01T20:30:45;58.78;;;27.30;;
65130;SDS011;51709;54.912;8.316;2023-03-01T20:36:06;58.28;;;24.83;;
65130;SDS011;51709;54.912;8.316;2023-03-01T20:41:28;22.95;;;11.55;;
65130;SDS011;51709;54.912;8.316;2023-03-01T20:46:49;19.17;;;10.75;;
65130;SDS011;51709;54.912;8.316;2023-03-01T20:52:10;14.27;;;8.90;;
65130;SDS011;51709;54.912;8.316;2023-03-01T20:57:30;19.58;;;9.43;;
65130;SDS011;51709;54.912;8.316;2023-03-01T21:02:52;18.48;;;10.63;;
65130;SDS011;51709;54.912;8.316;2023-03-01T21:08:13;24.42;;;9.60;;
65130;SDS011;51709;54.912;8.316;2023-03-01T21:13:34;19.42;;;10.20;;
65130;SDS011;51709;54.912;8.316;2023-03-01T21:18:55;16.02;;;9.98;;
65130;SDS011;51709;54.912;8.316;2023-03-01T21:24:16;18.90;;;10.00;;
65130;SDS011;51709;54.912;8.316;2023-03-01T21:29:40;19.48;;;10.13;;
65130;SDS011;51709;54.912;8.316;2023-03-01T21:35:02;21.48;;;10.85;;
65130;SDS011;51709;54.912;8.316;2023-03-01T21:40:22;19.55;;;9.60;;
65130;SDS011;51709;54.912;8.316;2023-03-01T21:45:44;17.58;;;10.98;;
65130;SDS011;51709;54.912;8.316;2023-03-01T21:51:04;17.30;;;9.02;;
65130;SDS011;51709;54.912;8.316;2023-03-01T21:56:26;18.25;;;10.52;;
65130;SDS011;51709;54.912;8.316;2023-03-01T22:01:49;19.80;;;10.48;;
65130;SDS011;51709;54.912;8.316;2023-03-01T22:07:10;19.83;;;10.70;;
65130;SDS011;51709;54.912;8.316;2023-03-01T22:12:31;19.42;;;9.32;;
65130;SDS011;51709;54.912;8.316;2023-03-01T22:17:53;15.80;;;9.45;;
65130;SDS011;51709;54.912;8.316;2023-03-01T22:23:14;18.20;;;10.02;;
65130;SDS011;51709;54.912;8.316;2023-03-01T22:28:34;14.98;;;8.45;;
65130;SDS011;51709;54.912;8.316;2023-03-01T22:33:55;13.57;;;8.70;;
65130;SDS011;51709;54.912;8.316;2023-03-01T22:39:17;17.05;;;9.68;;
65130;SDS011;51709;54.912;8.316;2023-03-01T22:44:39;18.58;;;9.18;;
65130;SDS011;51709;54.912;8.316;2023-03-01T22:50:01;16.58;;;9.48;;
65130;SDS011;51709;54.912;8.316;2023-03-01T22:55:21;15.77;;;9.15;;
65130;SDS011;51709;54.912;8.316;2023-03-01T23:00:42;17.88;;;8.65;;
65130;SDS011;51709;54.912;8.316;2023-03-01T23:06:03;19.55;;;10.25;;
65130;SDS011;51709;54.912;8.316;2023-03-01T23:11:24;14.15;;;8.88;;
65130;SDS011;51709;54.912;8.316;2023-03-01T23:16:46;19.45;;;9.52;;
65130;SDS011;51709;54.912;8.316;2023-03-01T23:22:07;17.70;;;10.40;;
65130;SDS011;51709;54.912;8.316;2023-03-01T23:27:28;24.70;;;12.00;;
65130;SDS011;51709;54.912;8.316;2023-03-01T23:32:50;18.25;;;11.27;;
65130;SDS011;51709;54.912;8.316;2023-03-01T23:38:12;20.27;;;11.15;;
65130;SDS011;51709;54.912;8.316;2023-03-01T23:43:33;22.08;;;10.45;;
65130;SDS011;51709;54.912;8.316;2023-03-01T23:48:54;18.00;;;9.98;;
65130;SDS011;51709;54.912;8.316;2023-03-01T23:54:16;16.63;;;9.40;;
65130;SDS011;51709;54.912;8.316;2023-03-01T23:59:38;22.25;;;10.38;;
